sensor_id;sensor_type;location;lat;lon;timestamp;P1;durP1;ratioP1;P2;durP2;ratioP2
19867;SDS011;10096;51.112;6.776;2024-02-16T00:00:45;3.30;;;2.58;;
19867;SDS011;10096;51.112;6.776;2024-02-16T00:03:19;5.43;;;2.97;;
19867;SDS011;10096;51.112;6.776;2024-02-16T00:05:47;4.72;;;2.60;;
19867;SDS011;10096;51.112;6.776;2024-02-16T00:08:23;4.60;;;2.72;;
19867;SDS011;10096;51.112;6.776;2024-02-16T00:10:55;4.45;;;2.67;;
19867;SDS011;10096;51.112;6.776;2024-02-16T00:13:22;6.13;;;2.63;;
19867;SDS011;10096;51.112;6.776;2024-02-16T00:15:49;3.70;;;2.83;;
19867;SDS011;10096;51.112;6.776;2024-02-16T00:18:16;5.25;;;2.55;;
19867;SDS011;10096;51.112;6.776;2024-02-16T00:20:43;3.42;;;2.47;;
19867;SDS011;10096;51.112;6.776;2024-02-16T00:23:11;5.57;;;2.95;;
19867;SDS011;10096;51.112;6.776;2024-02-16T00:25:41;5.90;;;2.83;;
19867;SDS011;10096;51.112;6.776;2024-02-16T00:28:08;4.40;;;2.50;;
19867;SDS011;10096;51.112;6.776;2024-02-16T00:30:35;3.70;;;2.90;;
19867;SDS011;10096;51.112;6.776;2024-02-16T00:33:02;4.68;;;3.15;;
19867;SDS011;10096;51.112;6.776;2024-02-16T00:35:30;4.68;;;2.50;;
19867;SDS011;10096;51.112;6.776;2024-02-16T00:38:02;3.95;;;2.83;;
19867;SDS011;10096;51.112;6.776;2024-02-16T00:40:29;5.70;;;3.33;;
19867;SDS011;10096;51.112;6.776;2024-02-16T00:42:57;4.05;;;2.88;;
19867;SDS011;10096;51.112;6.776;2024-02-16T00:45:24;3.72;;;2.58;;
19867;SDS011;10096;51.112;6.776;2024-02-16T00:47:51;4.82;;;2.92;;
19867;SDS011;10096;51.112;6.776;2024-02-16T00:50:18;3.30;;;2.95;;
19867;SDS011;10096;51.112;6.776;2024-02-16T00:52:48;3.28;;;2.97;;
19867;SDS011;10096;51.112;6.776;2024-02-16T00:55:23;4.55;;;2.85;;
19867;SDS011;10096;51.112;6.776;2024-02-16T00:57:49;4.60;;;2.75;;
19867;SDS011;10096;51.112;6.776;2024-02-16T01:00:20;3.78;;;3.00;;
19867;SDS011;10096;51.112;6.776;2024-02-16T01:02:48;4.05;;;2.95;;
19867;SDS011;10096;51.112;6.776;2024-02-16T01:05:16;6.53;;;3.38;;
19867;SDS011;10096;51.112;6.776;2024-02-16T01:07:46;4.63;;;3.13;;
19867;SDS011;10096;51.112;6.776;2024-02-16T01:10:19;3.35;;;2.83;;
19867;SDS011;10096;51.112;6.776;2024-02-16T01:12:47;3.20;;;2.83;;
19867;SDS011;10096;51.112;6.776;2024-02-16T01:15:17;5.70;;;2.75;;
19867;SDS011;10096;51.112;6.776;2024-02-16T01:17:47;3.72;;;2.78;;
19867;SDS011;10096;51.112;6.776;2024-02-16T01:20:16;5.43;;;3.10;;
19867;SDS011;10096;51.112;6.776;2024-02-16T01:22:43;4.15;;;2.67;;
19867;SDS011;10096;51.112;6.776;2024-02-16T01:25:18;4.65;;;2.97;;
19867;SDS011;10096;51.112;6.776;2024-02-16T01:27:56;4.45;;;2.80;;
19867;SDS011;10096;51.112;6.776;2024-02-16T01:30:29;5.05;;;2.80;;
19867;SDS011;10096;51.112;6.776;2024-02-16T01:32:59;3.63;;;2.88;;
19867;SDS011;10096;51.112;6.776;2024-02-16T01:35:31;3.58;;;2.90;;
19867;SDS011;10096;51.112;6.776;2024-02-16T01:37:58;4.20;;;3.15;;
19867;SDS011;10096;51.112;6.776;2024-02-16T01:40:34;2.92;;;2.40;;
19867;SDS011;10096;51.112;6.776;2024-02-16T01:43:01;4.70;;;2.95;;
19867;SDS011;10096;51.112;6.776;2024-02-16T01:45:30;3.55;;;2.90;;
19867;SDS011;10096;51.112;6.776;2024-02-16T01:48:07;4.20;;;2.55;;
19867;SDS011;10096;51.112;6.776;2024-02-16T01:50:38;4.78;;;2.95;;
19867;SDS011;10096;51.112;6.776;2024-02-16T01:53:08;3.70;;;2.78;;
19867;SDS011;10096;51.112;6.776;2024-02-16T01:55:36;3.33;;;2.65;;
19867;SDS011;10096;51.112;6.776;2024-02-16T01:58:03;5.72;;;3.00;;
19867;SDS011;10096;51.112;6.776;2024-02-16T02:00:35;5.10;;;2.60;;
19867;SDS011;10096;51.112;6.776;2024-02-16T02:03:02;5.13;;;3.22;;
19867;SDS011;10096;51.112;6.776;2024-02-16T02:05:32;3.70;;;2.63;;
19867;SDS011;10096;51.112;6.776;2024-02-16T02:07:59;3.88;;;2.50;;
19867;SDS011;10096;51.112;6.776;2024-02-16T02:10:38;5.07;;;2.85;;
19867;SDS011;10096;51.112;6.776;2024-02-16T02:13:05;3.85;;;2.50;;
19867;SDS011;10096;51.112;6.776;2024-02-16T02:15:32;3.80;;;2.42;;
19867;SDS011;10096;51.112;6.776;2024-02-16T02:18:01;4.28;;;2.47;;
19867;SDS011;10096;51.112;6.776;2024-02-16T02:20:31;3.88;;;2.47;;
19867;SDS011;10096;51.112;6.776;2024-02-16T02:23:04;5.65;;;2.85;;
19867;SDS011;10096;51.112;6.776;2024-02-16T02:25:32;6.32;;;2.70;;
19867;SDS011;10096;51.112;6.776;2024-02-16T02:28:05;3.63;;;2.33;;
19867;SDS011;10096;51.112;6.776;2024-02-16T02:30:35;3.28;;;2.50;;
19867;SDS011;10096;51.112;6.776;2024-02-16T02:33:03;4.97;;;2.65;;
19867;SDS011;10096;51.112;6.776;2024-02-16T02:35:35;3.97;;;2.70;;
19867;SDS011;10096;51.112;6.776;2024-02-16T02:38:09;2.75;;;2.35;;
19867;SDS011;10096;51.112;6.776;2024-02-16T02:40:37;5.13;;;3.05;;
19867;SDS011;10096;51.112;6.776;2024-02-16T02:43:04;3.00;;;2.70;;
19867;SDS011;10096;51.112;6.776;2024-02-16T02:45:32;3.38;;;2.35;;
19867;SDS011;10096;51.112;6.776;2024-02-16T02:47:59;4.82;;;3.03;;
19867;SDS011;10096;51.112;6.776;2024-02-16T02:50:26;2.92;;;2.63;;
19867;SDS011;10096;51.112;6.776;2024-02-16T02:52:53;3.00;;;2.20;;
19867;SDS011;10096;51.112;6.776;2024-02-16T02:55:24;3.17;;;2.70;;
19867;SDS011;10096;51.112;6.776;2024-02-16T02:57:51;5.30;;;3.05;;
19867;SDS011;10096;51.112;6.776;2024-02-16T03:00:18;5.88;;;2.55;;
19867;SDS011;10096;51.112;6.776;2024-02-16T03:02:45;7.20;;;2.70;;
19867;SDS011;10096;51.112;6.776;2024-02-16T03:05:24;2.60;;;2.40;;
19867;SDS011;10096;51.112;6.776;2024-02-16T03:07:55;3.53;;;2.75;;
19867;SDS011;10096;51.112;6.776;2024-02-16T03:10:32;4.38;;;2.70;;
19867;SDS011;10096;51.112;6.776;2024-02-16T03:13:00;5.13;;;2.53;;
19867;SDS011;10096;51.112;6.776;2024-02-16T03:15:28;3.10;;;2.33;;
19867;SDS011;10096;51.112;6.776;2024-02-16T03:17:57;4.75;;;2.70;;
19867;SDS011;10096;51.112;6.776;2024-02-16T03:20:34;4.38;;;2.38;;
19867;SDS011;10096;51.112;6.776;2024-02-16T03:23:01;3.97;;;2.80;;
19867;SDS011;10096;51.112;6.776;2024-02-16T03:25:30;3.60;;;2.60;;
19867;SDS011;10096;51.112;6.776;2024-02-16T03:27:57;4.72;;;2.97;;
19867;SDS011;10096;51.112;6.776;2024-02-16T03:30:28;3.17;;;2.35;;
19867;SDS011;10096;51.112;6.776;2024-02-16T03:32:55;5.18;;;2.60;;
19867;SDS011;10096;51.112;6.776;2024-02-16T03:35:23;3.33;;;2.63;;
19867;SDS011;10096;51.112;6.776;2024-02-16T03:37:54;4.20;;;2.60;;
19867;SDS011;10096;51.112;6.776;2024-02-16T03:40:22;4.45;;;2.45;;
19867;SDS011;10096;51.112;6.776;2024-02-16T03:42:52;3.40;;;2.60;;
19867;SDS011;10096;51.112;6.776;2024-02-16T03:45:19;4.45;;;2.72;;
19867;SDS011;10096;51.112;6.776;2024-02-16T03:47:48;3.55;;;2.72;;
19867;SDS011;10096;51.112;6.776;2024-02-16T03:50:20;4.10;;;2.90;;
19867;SDS011;10096;51.112;6.776;2024-02-16T03:52:48;5.93;;;3.05;;
19867;SDS011;10096;51.112;6.776;2024-02-16T03:55:15;6.45;;;3.38;;
19867;SDS011;10096;51.112;6.776;2024-02-16T03:57:42;5.00;;;2.75;;
19867;SDS011;10096;51.112;6.776;2024-02-16T04:00:15;5.68;;;2.72;;
19867;SDS011;10096;51.112;6.776;2024-02-16T04:02:43;4.72;;;2.63;;
19867;SDS011;10096;51.112;6.776;2024-02-16T04:05:21;5.05;;;3.25;;
19867;SDS011;10096;51.112;6.776;2024-02-16T04:08:00;3.35;;;2.63;;
19867;SDS011;10096;51.112;6.776;2024-02-16T04:10:34;4.88;;;3.10;;
19867;SDS011;10096;51.112;6.776;2024-02-16T04:13:18;4.90;;;3.20;;
19867;SDS011;10096;51.112;6.776;2024-02-16T04:18:54;5.07;;;3.20;;
19867;SDS011;10096;51.112;6.776;2024-02-16T04:21:46;4.07;;;2.92;;
19867;SDS011;10096;51.112;6.776;2024-02-16T04:24:13;6.53;;;2.90;;
19867;SDS011;10096;51.112;6.776;2024-02-16T04:26:44;4.00;;;2.60;;
19867;SDS011;10096;51.112;6.776;2024-02-16T04:29:17;4.47;;;2.83;;
19867;SDS011;10096;51.112;6.776;2024-02-16T04:34:52;4.60;;;2.70;;
19867;SDS011;10096;51.112;6.776;2024-02-16T04:37:21;4.95;;;3.03;;
19867;SDS011;10096;51.112;6.776;2024-02-16T04:39:48;7.00;;;3.55;;
19867;SDS011;10096;51.112;6.776;2024-02-16T04:42:27;4.05;;;3.03;;
19867;SDS011;10096;51.112;6.776;2024-02-16T04:45:02;4.82;;;3.10;;
19867;SDS011;10096;51.112;6.776;2024-02-16T04:47:29;2.92;;;2.63;;
19867;SDS011;10096;51.112;6.776;2024-02-16T04:52:44;4.55;;;3.30;;
19867;SDS011;10096;51.112;6.776;2024-02-16T04:55:19;5.95;;;3.72;;
19867;SDS011;10096;51.112;6.776;2024-02-16T04:57:56;4.18;;;3.10;;
19867;SDS011;10096;51.112;6.776;2024-02-16T05:00:25;5.70;;;3.45;;
19867;SDS011;10096;51.112;6.776;2024-02-16T05:02:57;4.22;;;2.97;;
19867;SDS011;10096;51.112;6.776;2024-02-16T05:05:36;4.75;;;3.20;;
19867;SDS011;10096;51.112;6.776;2024-02-16T05:08:08;5.38;;;3.45;;
19867;SDS011;10096;51.112;6.776;2024-02-16T05:10:45;4.80;;;2.75;;
19867;SDS011;10096;51.112;6.776;2024-02-16T05:13:13;4.47;;;3.20;;
19867;SDS011;10096;51.112;6.776;2024-02-16T05:15:40;4.07;;;2.88;;
19867;SDS011;10096;51.112;6.776;2024-02-16T05:18:12;5.57;;;4.60;;
19867;SDS011;10096;51.112;6.776;2024-02-16T05:20:50;4.70;;;3.20;;
19867;SDS011;10096;51.112;6.776;2024-02-16T05:23:18;5.30;;;3.95;;
19867;SDS011;10096;51.112;6.776;2024-02-16T05:25:44;4.25;;;3.08;;
19867;SDS011;10096;51.112;6.776;2024-02-16T05:28:19;4.93;;;3.20;;
19867;SDS011;10096;51.112;6.776;2024-02-16T05:30:47;3.95;;;3.15;;
19867;SDS011;10096;51.112;6.776;2024-02-16T05:33:13;4.40;;;3.10;;
19867;SDS011;10096;51.112;6.776;2024-02-16T05:35:40;3.88;;;2.97;;
19867;SDS011;10096;51.112;6.776;2024-02-16T05:38:11;4.75;;;3.15;;
19867;SDS011;10096;51.112;6.776;2024-02-16T05:40:46;5.05;;;3.83;;
19867;SDS011;10096;51.112;6.776;2024-02-16T05:43:25;5.30;;;4.30;;
19867;SDS011;10096;51.112;6.776;2024-02-16T05:46:02;4.53;;;3.90;;
19867;SDS011;10096;51.112;6.776;2024-02-16T05:48:37;5.32;;;3.47;;
19867;SDS011;10096;51.112;6.776;2024-02-16T05:51:08;5.25;;;3.33;;
19867;SDS011;10096;51.112;6.776;2024-02-16T05:53:46;4.10;;;3.25;;
19867;SDS011;10096;51.112;6.776;2024-02-16T05:56:14;4.93;;;3.47;;
19867;SDS011;10096;51.112;6.776;2024-02-16T05:58:47;6.82;;;3.42;;
19867;SDS011;10096;51.112;6.776;2024-02-16T06:01:15;3.67;;;3.30;;
19867;SDS011;10096;51.112;6.776;2024-02-16T06:03:42;5.68;;;3.58;;
19867;SDS011;10096;51.112;6.776;2024-02-16T06:06:09;3.67;;;3.25;;
19867;SDS011;10096;51.112;6.776;2024-02-16T06:08:38;4.90;;;3.10;;
19867;SDS011;10096;51.112;6.776;2024-02-16T06:11:11;4.75;;;2.97;;
19867;SDS011;10096;51.112;6.776;2024-02-16T06:13:50;3.50;;;3.13;;
19867;SDS011;10096;51.112;6.776;2024-02-16T06:16:17;3.45;;;2.97;;
19867;SDS011;10096;51.112;6.776;2024-02-16T06:18:51;5.85;;;3.55;;
19867;SDS011;10096;51.112;6.776;2024-02-16T06:21:20;7.95;;;3.88;;
19867;SDS011;10096;51.112;6.776;2024-02-16T06:23:49;4.95;;;3.53;;
19867;SDS011;10096;51.112;6.776;2024-02-16T06:26:22;4.38;;;3.55;;
19867;SDS011;10096;51.112;6.776;2024-02-16T06:28:55;5.13;;;3.95;;
19867;SDS011;10096;51.112;6.776;2024-02-16T06:31:26;5.18;;;3.35;;
19867;SDS011;10096;51.112;6.776;2024-02-16T06:33:54;6.63;;;3.35;;
19867;SDS011;10096;51.112;6.776;2024-02-16T06:36:25;5.32;;;3.55;;
19867;SDS011;10096;51.112;6.776;2024-02-16T06:38:57;9.90;;;4.55;;
19867;SDS011;10096;51.112;6.776;2024-02-16T06:41:28;5.38;;;3.30;;
19867;SDS011;10096;51.112;6.776;2024-02-16T06:44:06;6.53;;;3.65;;
19867;SDS011;10096;51.112;6.776;2024-02-16T06:46:36;3.35;;;2.97;;
19867;SDS011;10096;51.112;6.776;2024-02-16T06:49:03;5.15;;;3.65;;
19867;SDS011;10096;51.112;6.776;2024-02-16T06:51:40;3.58;;;2.80;;
19867;SDS011;10096;51.112;6.776;2024-02-16T06:54:13;6.30;;;3.97;;
19867;SDS011;10096;51.112;6.776;2024-02-16T06:57:03;3.40;;;3.03;;
19867;SDS011;10096;51.112;6.776;2024-02-16T06:59:30;6.57;;;5.03;;
19867;SDS011;10096;51.112;6.776;2024-02-16T07:02:03;3.97;;;3.30;;
19867;SDS011;10096;51.112;6.776;2024-02-16T07:04:30;5.63;;;3.22;;
19867;SDS011;10096;51.112;6.776;2024-02-16T07:06:57;4.93;;;3.55;;
19867;SDS011;10096;51.112;6.776;2024-02-16T07:09:24;5.30;;;3.08;;
19867;SDS011;10096;51.112;6.776;2024-02-16T07:11:53;5.22;;;3.63;;
19867;SDS011;10096;51.112;6.776;2024-02-16T07:14:21;6.68;;;3.72;;
19867;SDS011;10096;51.112;6.776;2024-02-16T07:16:50;5.07;;;3.08;;
19867;SDS011;10096;51.112;6.776;2024-02-16T07:19:20;4.80;;;3.30;;
19867;SDS011;10096;51.112;6.776;2024-02-16T07:21:48;7.03;;;3.40;;
19867;SDS011;10096;51.112;6.776;2024-02-16T07:24:15;4.63;;;3.40;;
19867;SDS011;10096;51.112;6.776;2024-02-16T07:26:43;5.28;;;3.40;;
19867;SDS011;10096;51.112;6.776;2024-02-16T07:29:29;4.85;;;4.35;;
19867;SDS011;10096;51.112;6.776;2024-02-16T07:31:57;3.78;;;3.28;;
19867;SDS011;10096;51.112;6.776;2024-02-16T07:34:23;3.72;;;3.33;;
19867;SDS011;10096;51.112;6.776;2024-02-16T07:36:52;4.15;;;3.75;;
19867;SDS011;10096;51.112;6.776;2024-02-16T07:39:39;4.50;;;3.90;;
19867;SDS011;10096;51.112;6.776;2024-02-16T07:42:14;6.07;;;4.18;;
19867;SDS011;10096;51.112;6.776;2024-02-16T07:44:43;4.57;;;3.78;;
19867;SDS011;10096;51.112;6.776;2024-02-16T07:47:10;5.82;;;4.25;;
19867;SDS011;10096;51.112;6.776;2024-02-16T07:49:42;8.07;;;3.53;;
19867;SDS011;10096;51.112;6.776;2024-02-16T07:52:16;4.10;;;3.55;;
19867;SDS011;10096;51.112;6.776;2024-02-16T07:54:52;4.60;;;3.03;;
19867;SDS011;10096;51.112;6.776;2024-02-16T07:57:38;5.40;;;3.55;;
19867;SDS011;10096;51.112;6.776;2024-02-16T08:00:10;5.07;;;4.32;;
19867;SDS011;10096;51.112;6.776;2024-02-16T08:02:55;7.10;;;3.97;;
19867;SDS011;10096;51.112;6.776;2024-02-16T08:05:22;4.35;;;3.40;;
19867;SDS011;10096;51.112;6.776;2024-02-16T08:07:53;4.70;;;3.38;;
19867;SDS011;10096;51.112;6.776;2024-02-16T08:10:30;9.45;;;4.68;;
19867;SDS011;10096;51.112;6.776;2024-02-16T08:13:01;5.47;;;3.78;;
19867;SDS011;10096;51.112;6.776;2024-02-16T08:15:43;6.85;;;3.80;;
19867;SDS011;10096;51.112;6.776;2024-02-16T08:18:10;5.47;;;3.80;;
19867;SDS011;10096;51.112;6.776;2024-02-16T08:20:42;5.85;;;4.15;;
19867;SDS011;10096;51.112;6.776;2024-02-16T08:23:10;5.15;;;3.63;;
19867;SDS011;10096;51.112;6.776;2024-02-16T08:25:38;4.35;;;3.50;;
19867;SDS011;10096;51.112;6.776;2024-02-16T08:28:05;6.30;;;4.05;;
19867;SDS011;10096;51.112;6.776;2024-02-16T08:30:34;7.13;;;3.95;;
19867;SDS011;10096;51.112;6.776;2024-02-16T08:33:07;5.70;;;3.72;;
19867;SDS011;10096;51.112;6.776;2024-02-16T08:35:35;5.60;;;3.67;;
19867;SDS011;10096;51.112;6.776;2024-02-16T08:38:05;4.45;;;3.38;;
19867;SDS011;10096;51.112;6.776;2024-02-16T08:40:40;4.35;;;3.40;;
19867;SDS011;10096;51.112;6.776;2024-02-16T08:43:08;4.97;;;3.17;;
19867;SDS011;10096;51.112;6.776;2024-02-16T08:45:40;4.80;;;3.78;;
19867;SDS011;10096;51.112;6.776;2024-02-16T08:48:12;6.40;;;4.90;;
19867;SDS011;10096;51.112;6.776;2024-02-16T08:50:39;6.88;;;5.50;;
19867;SDS011;10096;51.112;6.776;2024-02-16T08:53:15;4.45;;;3.08;;
19867;SDS011;10096;51.112;6.776;2024-02-16T08:55:53;6.60;;;3.42;;
19867;SDS011;10096;51.112;6.776;2024-02-16T08:58:20;5.72;;;3.38;;
19867;SDS011;10096;51.112;6.776;2024-02-16T09:00:48;4.38;;;3.42;;
19867;SDS011;10096;51.112;6.776;2024-02-16T09:03:28;4.55;;;3.45;;
19867;SDS011;10096;51.112;6.776;2024-02-16T09:06:01;6.43;;;3.60;;
19867;SDS011;10096;51.112;6.776;2024-02-16T09:08:27;4.00;;;3.47;;
19867;SDS011;10096;51.112;6.776;2024-02-16T09:10:58;6.47;;;3.65;;
19867;SDS011;10096;51.112;6.776;2024-02-16T09:13:29;8.40;;;3.75;;
19867;SDS011;10096;51.112;6.776;2024-02-16T09:15:57;5.53;;;3.90;;
19867;SDS011;10096;51.112;6.776;2024-02-16T09:18:24;8.23;;;4.65;;
19867;SDS011;10096;51.112;6.776;2024-02-16T09:20:52;4.95;;;4.07;;
19867;SDS011;10096;51.112;6.776;2024-02-16T09:23:19;8.98;;;7.20;;
19867;SDS011;10096;51.112;6.776;2024-02-16T09:25:48;6.45;;;4.40;;
19867;SDS011;10096;51.112;6.776;2024-02-16T09:28:18;5.47;;;4.07;;
19867;SDS011;10096;51.112;6.776;2024-02-16T09:30:47;4.60;;;3.78;;
19867;SDS011;10096;51.112;6.776;2024-02-16T09:33:17;6.13;;;3.50;;
19867;SDS011;10096;51.112;6.776;2024-02-16T09:35:46;8.80;;;3.83;;
19867;SDS011;10096;51.112;6.776;2024-02-16T09:38:17;6.72;;;4.13;;
19867;SDS011;10096;51.112;6.776;2024-02-16T09:40:46;6.35;;;3.95;;
19867;SDS011;10096;51.112;6.776;2024-02-16T09:43:22;6.07;;;3.63;;
19867;SDS011;10096;51.112;6.776;2024-02-16T09:45:56;6.45;;;3.55;;
19867;SDS011;10096;51.112;6.776;2024-02-16T09:48:25;8.13;;;4.72;;
19867;SDS011;10096;51.112;6.776;2024-02-16T09:51:01;7.43;;;3.90;;
19867;SDS011;10096;51.112;6.776;2024-02-16T09:53:33;5.15;;;3.17;;
19867;SDS011;10096;51.112;6.776;2024-02-16T09:56:00;5.97;;;4.53;;
19867;SDS011;10096;51.112;6.776;2024-02-16T09:58:28;5.78;;;3.80;;
19867;SDS011;10096;51.112;6.776;2024-02-16T10:00:55;8.13;;;6.10;;
19867;SDS011;10096;51.112;6.776;2024-02-16T10:03:23;5.43;;;4.35;;
19867;SDS011;10096;51.112;6.776;2024-02-16T10:05:49;5.28;;;4.40;;
19867;SDS011;10096;51.112;6.776;2024-02-16T10:08:17;4.80;;;4.05;;
19867;SDS011;10096;51.112;6.776;2024-02-16T10:10:45;7.82;;;4.15;;
19867;SDS011;10096;51.112;6.776;2024-02-16T10:13:29;9.35;;;5.00;;
19867;SDS011;10096;51.112;6.776;2024-02-16T10:16:12;6.80;;;4.57;;
19867;SDS011;10096;51.112;6.776;2024-02-16T10:18:42;5.20;;;3.92;;
19867;SDS011;10096;51.112;6.776;2024-02-16T10:21:12;5.47;;;3.92;;
19867;SDS011;10096;51.112;6.776;2024-02-16T10:23:39;6.68;;;4.60;;
19867;SDS011;10096;51.112;6.776;2024-02-16T10:26:07;8.02;;;5.20;;
19867;SDS011;10096;51.112;6.776;2024-02-16T10:28:38;7.03;;;4.22;;
19867;SDS011;10096;51.112;6.776;2024-02-16T10:31:18;4.82;;;4.32;;
19867;SDS011;10096;51.112;6.776;2024-02-16T10:33:54;8.68;;;4.15;;
19867;SDS011;10096;51.112;6.776;2024-02-16T10:36:24;7.43;;;4.88;;
19867;SDS011;10096;51.112;6.776;2024-02-16T10:38:53;6.88;;;4.80;;
19867;SDS011;10096;51.112;6.776;2024-02-16T10:41:24;5.35;;;4.22;;
19867;SDS011;10096;51.112;6.776;2024-02-16T10:43:55;6.45;;;4.03;;
19867;SDS011;10096;51.112;6.776;2024-02-16T10:46:29;6.70;;;4.47;;
19867;SDS011;10096;51.112;6.776;2024-02-16T10:48:57;6.18;;;4.45;;
19867;SDS011;10096;51.112;6.776;2024-02-16T10:51:28;4.65;;;3.63;;
19867;SDS011;10096;51.112;6.776;2024-02-16T10:54:00;6.15;;;4.00;;
19867;SDS011;10096;51.112;6.776;2024-02-16T10:56:35;7.70;;;4.55;;
19867;SDS011;10096;51.112;6.776;2024-02-16T10:59:04;7.38;;;3.92;;
19867;SDS011;10096;51.112;6.776;2024-02-16T11:01:32;7.47;;;4.00;;
19867;SDS011;10096;51.112;6.776;2024-02-16T11:04:03;9.20;;;5.35;;
19867;SDS011;10096;51.112;6.776;2024-02-16T11:06:43;6.40;;;4.50;;
19867;SDS011;10096;51.112;6.776;2024-02-16T11:09:25;9.43;;;4.78;;
19867;SDS011;10096;51.112;6.776;2024-02-16T11:12:04;6.97;;;5.00;;
19867;SDS011;10096;51.112;6.776;2024-02-16T11:14:41;10.93;;;5.65;;
19867;SDS011;10096;51.112;6.776;2024-02-16T11:17:09;7.90;;;5.05;;
19867;SDS011;10096;51.112;6.776;2024-02-16T11:19:42;7.68;;;4.15;;
19867;SDS011;10096;51.112;6.776;2024-02-16T11:22:10;9.43;;;4.30;;
19867;SDS011;10096;51.112;6.776;2024-02-16T11:24:43;7.28;;;5.03;;
19867;SDS011;10096;51.112;6.776;2024-02-16T11:27:16;5.88;;;4.20;;
19867;SDS011;10096;51.112;6.776;2024-02-16T11:29:45;6.45;;;4.13;;
19867;SDS011;10096;51.112;6.776;2024-02-16T11:32:12;6.72;;;3.70;;
19867;SDS011;10096;51.112;6.776;2024-02-16T11:34:39;5.97;;;3.60;;
19867;SDS011;10096;51.112;6.776;2024-02-16T11:37:09;4.25;;;3.95;;
19867;SDS011;10096;51.112;6.776;2024-02-16T11:39:42;8.27;;;4.88;;
19867;SDS011;10096;51.112;6.776;2024-02-16T11:42:12;6.80;;;5.30;;
19867;SDS011;10096;51.112;6.776;2024-02-16T11:44:51;8.25;;;5.10;;
19867;SDS011;10096;51.112;6.776;2024-02-16T11:47:20;9.10;;;6.07;;
19867;SDS011;10096;51.112;6.776;2024-02-16T11:50:03;6.55;;;4.85;;
19867;SDS011;10096;51.112;6.776;2024-02-16T11:52:43;9.57;;;4.53;;
19867;SDS011;10096;51.112;6.776;2024-02-16T11:55:10;8.20;;;4.93;;
19867;SDS011;10096;51.112;6.776;2024-02-16T12:00:39;6.72;;;4.43;;
19867;SDS011;10096;51.112;6.776;2024-02-16T12:03:06;7.82;;;4.70;;
19867;SDS011;10096;51.112;6.776;2024-02-16T12:05:41;7.75;;;5.13;;
19867;SDS011;10096;51.112;6.776;2024-02-16T12:08:19;6.72;;;4.75;;
19867;SDS011;10096;51.112;6.776;2024-02-16T12:11:00;8.40;;;5.00;;
19867;SDS011;10096;51.112;6.776;2024-02-16T12:13:35;7.50;;;4.30;;
19867;SDS011;10096;51.112;6.776;2024-02-16T12:16:02;9.73;;;5.05;;
19867;SDS011;10096;51.112;6.776;2024-02-16T12:18:43;7.15;;;4.85;;
19867;SDS011;10096;51.112;6.776;2024-02-16T12:21:11;9.23;;;4.38;;
19867;SDS011;10096;51.112;6.776;2024-02-16T12:23:45;8.13;;;5.28;;
19867;SDS011;10096;51.112;6.776;2024-02-16T12:26:16;7.00;;;5.43;;
19867;SDS011;10096;51.112;6.776;2024-02-16T12:28:51;7.72;;;5.22;;
19867;SDS011;10096;51.112;6.776;2024-02-16T12:31:24;8.13;;;5.55;;
19867;SDS011;10096;51.112;6.776;2024-02-16T12:33:54;7.65;;;4.93;;
19867;SDS011;10096;51.112;6.776;2024-02-16T12:39:15;7.78;;;5.28;;
19867;SDS011;10096;51.112;6.776;2024-02-16T12:41:42;7.63;;;5.07;;
19867;SDS011;10096;51.112;6.776;2024-02-16T12:44:11;6.25;;;5.10;;
19867;SDS011;10096;51.112;6.776;2024-02-16T12:46:43;6.50;;;5.00;;
19867;SDS011;10096;51.112;6.776;2024-02-16T12:49:11;8.18;;;5.28;;
19867;SDS011;10096;51.112;6.776;2024-02-16T12:51:40;7.70;;;5.10;;
19867;SDS011;10096;51.112;6.776;2024-02-16T12:54:08;9.50;;;5.75;;
19867;SDS011;10096;51.112;6.776;2024-02-16T12:56:41;9.15;;;5.20;;
19867;SDS011;10096;51.112;6.776;2024-02-16T12:59:16;6.90;;;5.22;;
19867;SDS011;10096;51.112;6.776;2024-02-16T13:01:43;10.68;;;6.25;;
19867;SDS011;10096;51.112;6.776;2024-02-16T13:04:14;8.57;;;5.40;;
19867;SDS011;10096;51.112;6.776;2024-02-16T13:06:50;8.63;;;5.70;;
19867;SDS011;10096;51.112;6.776;2024-02-16T13:09:19;9.95;;;5.65;;
19867;SDS011;10096;51.112;6.776;2024-02-16T13:11:46;6.63;;;5.47;;
19867;SDS011;10096;51.112;6.776;2024-02-16T13:14:21;8.18;;;5.35;;
19867;SDS011;10096;51.112;6.776;2024-02-16T13:16:48;8.77;;;5.57;;
19867;SDS011;10096;51.112;6.776;2024-02-16T13:19:15;7.90;;;5.50;;
19867;SDS011;10096;51.112;6.776;2024-02-16T13:21:43;8.15;;;5.75;;
19867;SDS011;10096;51.112;6.776;2024-02-16T13:24:15;10.80;;;5.97;;
19867;SDS011;10096;51.112;6.776;2024-02-16T13:26:45;8.93;;;5.30;;
19867;SDS011;10096;51.112;6.776;2024-02-16T13:29:14;9.13;;;6.05;;
19867;SDS011;10096;51.112;6.776;2024-02-16T13:31:42;9.02;;;5.10;;
19867;SDS011;10096;51.112;6.776;2024-02-16T13:34:14;8.02;;;6.07;;
19867;SDS011;10096;51.112;6.776;2024-02-16T13:36:42;7.28;;;5.55;;
19867;SDS011;10096;51.112;6.776;2024-02-16T13:39:11;7.97;;;6.05;;
19867;SDS011;10096;51.112;6.776;2024-02-16T13:41:44;7.40;;;6.32;;
19867;SDS011;10096;51.112;6.776;2024-02-16T13:44:13;6.97;;;6.20;;
19867;SDS011;10096;51.112;6.776;2024-02-16T13:46:57;10.98;;;6.10;;
19867;SDS011;10096;51.112;6.776;2024-02-16T13:49:32;8.32;;;5.90;;
19867;SDS011;10096;51.112;6.776;2024-02-16T13:51:59;9.88;;;5.97;;
19867;SDS011;10096;51.112;6.776;2024-02-16T13:54:28;9.88;;;5.93;;
19867;SDS011;10096;51.112;6.776;2024-02-16T13:56:55;7.68;;;5.93;;
19867;SDS011;10096;51.112;6.776;2024-02-16T13:59:22;8.05;;;5.78;;
19867;SDS011;10096;51.112;6.776;2024-02-16T14:01:49;8.07;;;6.43;;
19867;SDS011;10096;51.112;6.776;2024-02-16T14:04:22;9.68;;;6.82;;
19867;SDS011;10096;51.112;6.776;2024-02-16T14:06:52;9.00;;;6.70;;
19867;SDS011;10096;51.112;6.776;2024-02-16T14:09:30;10.60;;;7.20;;
19867;SDS011;10096;51.112;6.776;2024-02-16T14:11:57;8.07;;;6.18;;
19867;SDS011;10096;51.112;6.776;2024-02-16T14:14:25;8.82;;;7.15;;
19867;SDS011;10096;51.112;6.776;2024-02-16T14:16:52;9.20;;;7.57;;
19867;SDS011;10096;51.112;6.776;2024-02-16T14:19:24;8.35;;;6.63;;
19867;SDS011;10096;51.112;6.776;2024-02-16T14:21:55;9.32;;;6.70;;
19867;SDS011;10096;51.112;6.776;2024-02-16T14:25:33;7.80;;;7.07;;
19867;SDS011;10096;51.112;6.776;2024-02-16T14:27:38;8.40;;;7.35;;
19867;SDS011;10096;51.112;6.776;2024-02-16T14:30:06;10.02;;;7.28;;
19867;SDS011;10096;51.112;6.776;2024-02-16T14:32:34;8.45;;;7.60;;
19867;SDS011;10096;51.112;6.776;2024-02-16T14:35:10;8.95;;;7.97;;
19867;SDS011;10096;51.112;6.776;2024-02-16T14:37:38;11.35;;;8.38;;
19867;SDS011;10096;51.112;6.776;2024-02-16T14:40:08;8.30;;;7.50;;
19867;SDS011;10096;51.112;6.776;2024-02-16T14:42:45;9.75;;;8.75;;
19867;SDS011;10096;51.112;6.776;2024-02-16T14:45:28;9.18;;;8.27;;
19867;SDS011;10096;51.112;6.776;2024-02-16T14:48:05;8.50;;;7.15;;
19867;SDS011;10096;51.112;6.776;2024-02-16T14:50:38;8.85;;;7.95;;
19867;SDS011;10096;51.112;6.776;2024-02-16T14:53:06;9.40;;;7.50;;
19867;SDS011;10096;51.112;6.776;2024-02-16T14:55:33;9.50;;;8.60;;
19867;SDS011;10096;51.112;6.776;2024-02-16T14:58:00;8.48;;;7.40;;
19867;SDS011;10096;51.112;6.776;2024-02-16T15:00:37;10.30;;;8.23;;
19867;SDS011;10096;51.112;6.776;2024-02-16T15:06:21;9.20;;;7.25;;
19867;SDS011;10096;51.112;6.776;2024-02-16T15:08:48;8.23;;;7.43;;
19867;SDS011;10096;51.112;6.776;2024-02-16T15:11:22;9.25;;;7.72;;
19867;SDS011;10096;51.112;6.776;2024-02-16T15:13:48;8.82;;;7.88;;
19867;SDS011;10096;51.112;6.776;2024-02-16T15:16:15;8.65;;;7.85;;
19867;SDS011;10096;51.112;6.776;2024-02-16T15:18:42;7.53;;;6.65;;
19867;SDS011;10096;51.112;6.776;2024-02-16T15:21:11;8.57;;;7.63;;
19867;SDS011;10096;51.112;6.776;2024-02-16T15:23:41;13.52;;;9.93;;
19867;SDS011;10096;51.112;6.776;2024-02-16T15:26:09;10.43;;;7.90;;
19867;SDS011;10096;51.112;6.776;2024-02-16T15:28:38;8.00;;;7.30;;